Time;durP1;ratioP1;P1;durP2;ratioP2;P2;SDS_P1;SDS_P2;PMS_P1;PMS_P2;Temp;Humidity;BMP_temperature;BMP_pressure;BME280_temperature;BME280_humidity;BME280_pressure;Samples;Min_cycle;Max_cycle;Signal;HPM_P1;HPM_P2
2023/12/13 00:00:42;;;;;;;;;;;;;;;5.08;94.62;99728.25;4119103;28;20493;-70
2023/12/13 00:02:44;;;;;;;;;;;;;;;5.08;94.37;99700.63;4153264;28;20008;-71
2023/12/13 00:04:46;;;;;;;;;;;;;;;5.09;94.44;99697.78;4154572;28;20388;-70
2023/12/13 00:06:47;;;;;;;;;;;;;;;5.11;94.29;99700.31;4155773;28;20005;-70
2023/12/13 00:08:50;;;;;;;;;;;;;;;5.08;94.36;99693.47;4155889;28;20370;-70
2023/12/13 00:10:58;;;;;;;;;;;;;;;5.09;94.40;99688.94;4155004;28;19971;-70
2023/12/13 00:13:02;;;;;;;;;;;;;;;5.10;94.39;99687.94;4154839;28;19968;-70
2023/12/13 00:15:07;;;;;;;;;;;;;;;5.10;94.31;99680.75;4151185;28;20012;-71
2023/12/13 00:17:10;;;;;;;;;;;;;;;5.11;94.53;99681.56;4151966;28;20060;-71
2023/12/13 00:19:13;;;;;;;;;;;;;;;5.11;94.46;99673.53;4155720;28;20025;-70
2023/12/13 00:21:17;;;;;;;;;;;;;;;5.10;94.63;99667.34;4145252;28;20025;-70
2023/12/13 00:23:20;;;;;;;;;;;;;;;5.12;94.66;99669.88;4148955;28;19926;-71
2023/12/13 00:25:22;;;;;;;;;;;;;;;5.10;94.70;99664.69;4155549;28;20350;-71
2023/12/13 00:27:24;;;;;;;;;;;;;;;5.11;94.59;99665.50;4155581;28;20021;-72
2023/12/13 00:29:26;;;;;;;;;;;;;;;5.11;94.66;99666.38;4154465;28;20016;-72
2023/12/13 00:31:30;;;;;;;;;;;;;;;5.13;95.13;99666.19;4137790;28;19960;-71
2023/12/13 00:33:32;;;;;;;;;;;;;;;5.14;94.97;99670.53;4154064;28;19964;-72
2023/12/13 00:35:35;;;;;;;;;;;;;;;5.15;95.18;99665.00;4155421;28;20023;-72
2023/12/13 00:37:36;;;;;;;;;;;;;;;5.14;95.26;99660.69;4153782;28;20455;-71
2023/12/13 00:39:39;;;;;;;;;;;;;;;5.15;94.99;99653.47;4150778;28;20040;-72
2023/12/13 00:41:41;;;;;;;;;;;;;;;5.16;95.18;99647.13;4152758;28;19957;-71
2023/12/13 00:43:43;;;;;;;;;;;;;;;5.15;95.29;99650.78;4155778;28;20431;-71
2023/12/13 00:45:45;;;;;;;;;;;;;;;5.17;95.44;99643.41;4155256;28;20415;-72
2023/12/13 00:47:49;;;;;;;;;;;;;;;5.18;95.37;99645.09;4154990;28;20023;-71
2023/12/13 00:49:52;;;;;;;;;;;;;;;5.18;95.65;99637.06;4151387;28;19987;-71
2023/12/13 00:51:54;;;;;;;;;;;;;;;5.19;95.32;99646.78;4137336;28;19929;-70
2023/12/13 00:53:56;;;;;;;;;;;;;;;5.19;95.32;99650.28;4155535;28;20015;-72
2023/12/13 00:55:58;;;;;;;;;;;;;;;5.19;95.62;99642.25;4155054;28;20391;-72
2023/12/13 00:58:00;;;;;;;;;;;;;;;5.20;95.24;99646.63;4155214;28;20020;-73
2023/12/13 01:00:03;;;;;;;;;;;;;;;5.19;95.43;99647.63;4153793;28;20019;-72
2023/12/13 01:02:07;;;;;;;;;;;;;;;5.19;95.13;99652.13;4154703;28;20012;-71
2023/12/13 01:04:11;;;;;;;;;;;;;;;5.20;95.46;99651.13;4153816;28;20478;-71
2023/12/13 01:06:13;;;;;;;;;;;;;;;5.20;95.33;99638.59;4153629;28;19933;-72
2023/12/13 01:08:16;;;;;;;;;;;;;;;5.21;95.66;99640.25;4154333;28;20367;-72
2023/12/13 01:10:20;;;;;;;;;;;;;;;5.22;95.56;99641.91;4148885;28;20031;-71
2023/12/13 01:12:22;;;;;;;;;;;;;;;5.20;95.21;99637.72;4137769;28;19944;-70
2023/12/13 01:14:24;;;;;;;;;;;;;;;5.21;95.48;99636.72;4155029;28;20012;-71
2023/12/13 01:16:27;;;;;;;;;;;;;;;5.21;95.24;99631.38;4154686;28;20031;-70
2023/12/13 01:18:28;;;;;;;;;;;;;;;5.21;95.30;99626.84;4154525;28;20032;-71
2023/12/13 01:20:31;;;;;;;;;;;;;;;5.22;95.46;99633.06;4154024;28;20104;-72
2023/12/13 01:22:33;;;;;;;;;;;;;;;5.21;95.19;99631.38;4152844;28;20028;-71
2023/12/13 01:24:35;;;;;;;;;;;;;;;5.22;95.07;99636.56;4154940;28;20024;-71
2023/12/13 01:26:38;;;;;;;;;;;;;;;5.23;95.35;99615.97;4154710;28;20404;-72
2023/12/13 01:28:40;;;;;;;;;;;;;;;5.23;95.35;99629.38;4156297;28;20836;-71
2023/12/13 01:30:42;;;;;;;;;;;;;;;5.24;95.42;99615.81;4158554;28;20024;-70
2023/12/13 01:32:44;;;;;;;;;;;;;;;5.26;95.35;99620.16;4159500;28;20044;-71
2023/12/13 01:34:46;;;;;;;;;;;;;;;5.24;95.21;99606.94;4160019;28;20336;-70
2023/12/13 01:36:50;;;;;;;;;;;;;;;5.28;95.39;99613.63;4159807;28;20335;-71
2023/12/13 01:38:52;;;;;;;;;;;;;;;5.25;95.20;99608.63;4158699;28;19969;-70
2023/12/13 01:40:54;;;;;;;;;;;;;;;5.29;95.34;99617.16;4162971;28;20370;-70
2023/12/13 01:42:56;;;;;;;;;;;;;;;5.28;94.95;99618.97;4160118;28;20008;-72
2023/12/13 01:44:58;;;;;;;;;;;;;;;5.29;95.16;99617.16;4161046;28;20035;-70
2023/12/13 01:47:01;;;;;;;;;;;;;;;5.28;95.05;99616.28;4160071;28;20407;-72
2023/12/13 01:49:05;;;;;;;;;;;;;;;5.29;95.37;99609.13;4160069;28;20017;-72
2023/12/13 01:51:07;;;;;;;;;;;;;;;5.30;95.43;99605.41;4154778;28;20036;-72
2023/12/13 01:53:10;;;;;;;;;;;;;;;5.29;95.44;99609.94;4157945;28;20020;-71
2023/12/13 01:55:12;;;;;;;;;;;;;;;5.29;95.35;99606.44;4159444;28;20024;-72
2023/12/13 01:57:14;;;;;;;;;;;;;;;5.31;95.20;99602.56;4159346;28;20024;-72
2023/12/13 01:59:17;;;;;;;;;;;;;;;5.32;95.23;99601.56;4159544;28;20024;-68
2023/12/13 02:01:19;;;;;;;;;;;;;;;5.33;95.34;99605.06;4157275;28;20019;-72
2023/12/13 02:03:22;;;;;;;;;;;;;;;5.32;95.15;99598.88;4158535;28;20016;-71
2023/12/13 02:05:26;;;;;;;;;;;;;;;5.33;95.39;99597.91;4141834;28;19980;-72
2023/12/13 02:07:28;;;;;;;;;;;;;;;5.32;95.16;99596.22;4155121;28;20024;-72
2023/12/13 02:09:32;;;;;;;;;;;;;;;5.31;95.30;99597.22;4141937;28;20017;-68
2023/12/13 02:11:34;;;;;;;;;;;;;;;5.33;95.41;99595.22;4159004;28;20024;-70
2023/12/13 02:13:36;;;;;;;;;;;;;;;5.31;95.32;99589.19;4159209;28;20035;-72
2023/12/13 02:15:39;;;;;;;;;;;;;;;5.32;95.49;99590.03;4158639;28;20019;-70
2023/12/13 02:17:47;;;;;;;;;;;;;;;5.33;95.42;99589.00;4158174;28;20025;-71
2023/12/13 02:19:51;;;;;;;;;;;;;;;5.32;95.56;99590.84;4153307;28;20466;-72
2023/12/13 02:21:53;;;;;;;;;;;;;;;5.33;95.44;99591.69;4142439;28;19952;-70
2023/12/13 02:23:57;;;;;;;;;;;;;;;5.31;95.56;99583.81;4159463;28;20003;-71
2023/12/13 02:25:59;;;;;;;;;;;;;;;5.33;95.30;99580.97;4157922;28;20024;-69
2023/12/13 02:28:01;;;;;;;;;;;;;;;5.32;95.63;99579.31;4141819;28;19931;-71
2023/12/13 02:30:04;;;;;;;;;;;;;;;5.30;95.62;99563.44;4155297;28;20036;-72
2023/12/13 02:32:06;;;;;;;;;;;;;;;5.32;95.39;99557.91;4158924;28;20340;-71
2023/12/13 02:34:08;;;;;;;;;;;;;;;5.31;95.79;99558.91;4158797;28;20028;-71
2023/12/13 02:36:10;;;;;;;;;;;;;;;5.32;95.82;99558.72;4159539;28;19932;-71
2023/12/13 02:38:12;;;;;;;;;;;;;;;5.32;95.71;99557.91;4153838;28;20021;-71
2023/12/13 02:40:17;;;;;;;;;;;;;;;5.33;95.60;99554.19;4156145;28;19965;-71
2023/12/13 02:42:19;;;;;;;;;;;;;;;5.33;95.52;99547.03;4155703;28;19929;-71
2023/12/13 02:44:22;;;;;;;;;;;;;;;5.35;95.82;99538.81;4152719;28;20404;-71
2023/12/13 02:46:24;;;;;;;;;;;;;;;5.34;95.64;99543.31;4156800;28;20024;-71
2023/12/13 02:48:26;;;;;;;;;;;;;;;5.35;95.98;99538.81;4153654;28;20839;-71
2023/12/13 02:50:29;;;;;;;;;;;;;;;5.35;95.61;99546.84;4155670;28;19929;-71
2023/12/13 02:52:30;;;;;;;;;;;;;;;5.35;95.51;99546.84;4138994;28;20016;-71
2023/12/13 02:54:32;;;;;;;;;;;;;;;5.34;95.54;99542.50;4155461;28;20048;-71
2023/12/13 02:56:35;;;;;;;;;;;;;;;5.34;95.41;99548.69;4154669;28;20459;-69
2023/12/13 02:58:37;;;;;;;;;;;;;;;5.36;95.83;99533.28;4156247;28;20067;-72
2023/12/13 03:00:39;;;;;;;;;;;;;;;5.36;95.65;99535.13;4155391;28;20020;-71
2023/12/13 03:02:41;;;;;;;;;;;;;;;5.35;95.67;99522.75;4156575;28;20016;-70
2023/12/13 03:04:43;;;;;;;;;;;;;;;5.36;95.99;99516.38;4155383;28;20024;-70
2023/12/13 03:06:46;;;;;;;;;;;;;;;5.35;95.68;99515.56;4154637;28;20012;-70
2023/12/13 03:08:48;;;;;;;;;;;;;;;5.36;95.80;99522.59;4156558;28;19929;-71
2023/12/13 03:10:50;;;;;;;;;;;;;;;5.38;95.87;99535.81;4155453;28;20004;-70
2023/12/13 03:12:53;;;;;;;;;;;;;;;5.38;96.10;99523.25;4155043;28;20028;-70
2023/12/13 03:14:56;;;;;;;;;;;;;;;5.38;95.76;99525.91;4156700;28;20020;-71
2023/12/13 03:16:59;;;;;;;;;;;;;;;5.38;95.81;99527.75;4150584;28;19932;-71
2023/12/13 03:19:13;;;;;;;;;;;;;;;5.37;95.88;99529.59;4137417;28;19933;-71
2023/12/13 03:21:19;;;;;;;;;;;;;;;5.38;96.25;99536.63;4154673;28;19937;-72
2023/12/13 03:23:21;;;;;;;;;;;;;;;5.40;96.14;99525.75;4155563;28;20079;-71
2023/12/13 03:25:23;;;;;;;;;;;;;;;5.41;96.25;99527.44;4138359;28;20047;-72
2023/12/13 03:27:25;;;;;;;;;;;;;;;5.40;96.11;99521.22;4156237;28;19960;-72
2023/12/13 03:29:28;;;;;;;;;;;;;;;5.43;96.25;99524.56;4155815;28;20024;-69
2023/12/13 03:31:30;;;;;;;;;;;;;;;5.42;96.21;99526.38;4133957;28;20024;-72
2023/12/13 03:33:32;;;;;;;;;;;;;;;5.43;96.35;99522.72;4155844;28;20028;-71
2023/12/13 03:35:34;;;;;;;;;;;;;;;5.43;96.38;99521.91;4138619;28;19957;-72
2023/12/13 03:37:37;;;;;;;;;;;;;;;5.44;96.39;99511.00;4156501;28;20013;-72
2023/12/13 03:39:39;;;;;;;;;;;;;;;5.43;96.34;99512.00;4155899;28;20454;-71
2023/12/13 03:41:41;;;;;;;;;;;;;;;5.45;96.28;99501.13;4153343;28;20020;-71
2023/12/13 03:43:42;;;;;;;;;;;;;;;5.45;96.17;99495.78;4139288;28;20032;-71
2023/12/13 03:45:45;;;;;;;;;;;;;;;5.46;96.51;99489.41;4137959;28;20383;-72
2023/12/13 03:47:47;;;;;;;;;;;;;;;5.45;96.68;99487.72;4155296;28;20020;-71
2023/12/13 03:49:49;;;;;;;;;;;;;;;5.45;96.34;99488.56;4138468;28;19942;-72
2023/12/13 03:51:51;;;;;;;;;;;;;;;5.45;96.34;99480.53;4155438;28;20043;-72
2023/12/13 03:53:53;;;;;;;;;;;;;;;5.46;96.73;99478.69;4155770;28;20473;-71
2023/12/13 03:55:55;;;;;;;;;;;;;;;5.47;96.66;99472.31;4155584;28;20023;-70
2023/12/13 03:57:57;;;;;;;;;;;;;;;5.47;96.70;99475.00;4156355;28;20545;-71
2023/12/13 03:59:59;;;;;;;;;;;;;;;5.47;96.66;99475.00;4155012;28;20043;-71
2023/12/13 04:02:02;;;;;;;;;;;;;;;5.47;96.80;99477.66;4155550;28;20119;-71
2023/12/13 04:04:04;;;;;;;;;;;;;;;5.48;96.90;99476.69;4150420;28;20348;-71
2023/12/13 04:06:07;;;;;;;;;;;;;;;5.46;96.60;99474.16;4155004;28;20491;-71
2023/12/13 04:08:09;;;;;;;;;;;;;;;5.47;96.90;99467.81;4137849;28;20020;-72
2023/12/13 04:10:11;;;;;;;;;;;;;;;5.47;96.71;99478.53;4151622;28;20422;-71
2023/12/13 04:12:14;;;;;;;;;;;;;;;5.48;96.70;99474.00;4156407;28;20017;-72
2023/12/13 04:14:17;;;;;;;;;;;;;;;5.50;96.57;99472.81;4137981;28;19929;-72
2023/12/13 04:16:20;;;;;;;;;;;;;;;5.50;96.68;99472.81;4139471;28;19957;-71
2023/12/13 04:18:24;;;;;;;;;;;;;;;5.51;96.93;99474.47;4155195;28;19932;-72
2023/12/13 04:20:26;;;;;;;;;;;;;;;5.51;96.67;99471.78;4153079;28;20019;-72
2023/12/13 04:22:28;;;;;;;;;;;;;;;5.52;96.91;99473.47;4156447;28;20012;-71
2023/12/13 04:24:30;;;;;;;;;;;;;;;5.51;97.05;99471.78;4157254;28;20476;-71
2023/12/13 04:26:31;;;;;;;;;;;;;;;5.49;96.87;99465.78;4153943;28;20012;-71
2023/12/13 04:28:34;;;;;;;;;;;;;;;5.49;96.87;99468.47;4154930;28;20023;-72
2023/12/13 04:30:36;;;;;;;;;;;;;;;5.50;96.74;99461.25;4152940;28;19987;-71
2023/12/13 04:32:38;;;;;;;;;;;;;;;5.51;97.02;99466.44;4154988;28;20004;-72
2023/12/13 04:34:42;;;;;;;;;;;;;;;5.51;97.28;99468.28;4155526;28;20023;-72
2023/12/13 04:36:45;;;;;;;;;;;;;;;5.52;97.08;99459.25;4154340;28;19952;-71
2023/12/13 04:38:48;;;;;;;;;;;;;;;5.53;96.94;99460.91;4154140;28;19925;-71
2023/12/13 04:40:50;;;;;;;;;;;;;;;5.53;96.96;99459.09;4137400;28;20494;-71
2023/12/13 04:42:52;;;;;;;;;;;;;;;5.53;97.10;99461.75;4152341;28;19934;-70
2023/12/13 04:44:55;;;;;;;;;;;;;;;5.54;97.14;99455.38;4151914;28;20017;-72
2023/12/13 04:46:56;;;;;;;;;;;;;;;5.54;97.40;99454.56;4137354;28;19971;-70
2023/12/13 04:48:58;;;;;;;;;;;;;;;5.54;97.13;99450.00;4137687;28;20467;-72
2023/12/13 04:51:02;;;;;;;;;;;;;;;5.55;97.28;99458.91;4137680;28;20411;-71
2023/12/13 04:53:04;;;;;;;;;;;;;;;5.57;97.35;99448.84;4152867;28;20351;-72
2023/12/13 04:55:06;;;;;;;;;;;;;;;5.56;97.14;99455.19;4153970;28;20040;-71
2023/12/13 04:57:08;;;;;;;;;;;;;;;5.57;97.46;99446.16;4152725;28;20012;-71
2023/12/13 04:59:09;;;;;;;;;;;;;;;5.58;97.58;99447.84;4154306;28;20019;-72
2023/12/13 05:01:11;;;;;;;;;;;;;;;5.57;97.37;99455.03;4145011;28;19933;-72
2023/12/13 05:03:13;;;;;;;;;;;;;;;5.58;97.79;99445.16;4152568;28;20399;-71
2023/12/13 05:05:15;;;;;;;;;;;;;;;5.59;97.42;99449.50;4155478;28;19965;-72
2023/12/13 05:07:18;;;;;;;;;;;;;;;5.57;97.77;99444.31;4155115;28;20008;-71
2023/12/13 05:09:21;;;;;;;;;;;;;;;5.59;97.62;99444.13;4152405;28;20610;-71
2023/12/13 05:11:23;;;;;;;;;;;;;;;5.58;97.25;99443.31;4153830;28;19929;-72
2023/12/13 05:13:25;;;;;;;;;;;;;;;5.58;97.54;99437.13;4154418;28;20362;-72
2023/12/13 05:15:27;;;;;;;;;;;;;;;5.58;97.35;99437.94;4153346;28;19968;-71
2023/12/13 05:17:29;;;;;;;;;;;;;;;5.58;97.51;99437.94;4154494;28;20028;-72
2023/12/13 05:19:31;;;;;;;;;;;;;;;5.60;97.51;99438.59;4153926;28;20024;-72
2023/12/13 05:21:33;;;;;;;;;;;;;;;5.61;97.35;99442.09;4153337;28;20020;-72
2023/12/13 05:23:36;;;;;;;;;;;;;;;5.62;97.36;99440.28;4152562;28;19929;-69
2023/12/13 05:25:38;;;;;;;;;;;;;;;5.63;97.61;99437.41;4152676;28;20027;-71
2023/12/13 05:27:42;;;;;;;;;;;;;;;5.63;97.44;99440.09;4154190;28;20016;-72
2023/12/13 05:29:44;;;;;;;;;;;;;;;5.63;97.40;99439.25;4153546;28;20489;-70
2023/12/13 05:31:46;;;;;;;;;;;;;;;5.63;97.20;99437.41;4154263;28;19929;-71
2023/12/13 05:33:49;;;;;;;;;;;;;;;5.63;97.26;99432.06;4153476;28;20020;-71
2023/12/13 05:35:51;;;;;;;;;;;;;;;5.63;97.40;99437.41;4153562;28;20032;-72
2023/12/13 05:37:53;;;;;;;;;;;;;;;5.64;97.58;99441.75;4154786;28;20019;-70
2023/12/13 05:39:56;;;;;;;;;;;;;;;5.64;97.29;99431.03;4154271;28;20028;-70
2023/12/13 05:41:59;;;;;;;;;;;;;;;5.64;97.58;99439.06;4153781;28;20021;-70
2023/12/13 05:44:01;;;;;;;;;;;;;;;5.65;97.59;99438.06;4154280;28;20044;-71
2023/12/13 05:46:04;;;;;;;;;;;;;;;5.65;97.58;99426.53;4155182;28;20025;-71
2023/12/13 05:48:06;;;;;;;;;;;;;;;5.66;97.87;99439.75;4154931;28;19925;-70
2023/12/13 05:50:08;;;;;;;;;;;;;;;5.66;97.81;99437.06;4155350;28;20028;-71
2023/12/13 05:52:09;;;;;;;;;;;;;;;5.65;97.80;99438.06;4152985;28;19925;-71
2023/12/13 05:54:11;;;;;;;;;;;;;;;5.65;97.87;99430.03;4154216;28;20027;-71
2023/12/13 05:56:15;;;;;;;;;;;;;;;5.66;97.91;99438.91;4154488;28;20020;-70
2023/12/13 05:58:17;;;;;;;;;;;;;;;5.66;98.04;99439.75;4155746;28;20355;-71
2023/12/13 06:00:18;;;;;;;;;;;;;;;5.67;98.11;99435.22;4151886;28;20073;-71
2023/12/13 06:02:20;;;;;;;;;;;;;;;5.65;98.05;99432.72;4155050;28;20016;-72
2023/12/13 06:04:22;;;;;;;;;;;;;;;5.66;98.03;99433.53;4151077;28;19963;-71
2023/12/13 06:06:24;;;;;;;;;;;;;;;5.66;97.97;99437.06;4153595;28;20033;-71
2023/12/13 06:08:26;;;;;;;;;;;;;;;5.67;98.14;99435.22;4154205;28;20023;-72
2023/12/13 06:10:29;;;;;;;;;;;;;;;5.68;98.02;99436.91;4152719;28;20020;-70
2023/12/13 06:12:33;;;;;;;;;;;;;;;5.68;98.45;99440.41;4151948;28;20378;-71
2023/12/13 06:14:37;;;;;;;;;;;;;;;5.69;98.39;99441.22;4137781;28;20358;-71
2023/12/13 06:16:40;;;;;;;;;;;;;;;5.70;98.45;99440.22;4155790;28;20399;-71
2023/12/13 06:18:42;;;;;;;;;;;;;;;5.70;98.60;99435.69;4155397;28;19952;-71
2023/12/13 06:20:44;;;;;;;;;;;;;;;5.70;98.62;99438.38;4138777;28;19930;-71
2023/12/13 06:22:47;;;;;;;;;;;;;;;5.71;98.31;99432.00;4156470;28;20382;-71
2023/12/13 06:24:50;;;;;;;;;;;;;;;5.70;98.43;99429.50;4138901;28;20411;-72
2023/12/13 06:26:50;;;;;;;;;;;;;;;5.71;98.47;99429.31;4154862;28;20024;-71
2023/12/13 06:28:55;;;;;;;;;;;;;;;5.73;98.69;99426.47;4157659;28;20032;-71
2023/12/13 06:30:57;;;;;;;;;;;;;;;5.72;98.57;99425.66;4155225;28;20016;-70
2023/12/13 06:32:59;;;;;;;;;;;;;;;5.73;98.42;99424.63;4156565;28;20384;-71
2023/12/13 06:35:01;;;;;;;;;;;;;;;5.73;98.61;99421.13;4156731;28;20008;-70
2023/12/13 06:37:03;;;;;;;;;;;;;;;5.73;98.53;99427.28;4155566;28;20091;-71
2023/12/13 06:39:07;;;;;;;;;;;;;;;5.74;98.55;99430.81;4157204;28;20019;-71
2023/12/13 06:41:09;;;;;;;;;;;;;;;5.74;98.80;99428.97;4156324;28;20024;-69
2023/12/13 06:43:12;;;;;;;;;;;;;;;5.76;99.13;99432.28;4155449;28;19980;-71
2023/12/13 06:45:16;;;;;;;;;;;;;;;5.77;98.68;99425.13;4155155;28;20016;-71
2023/12/13 06:47:18;;;;;;;;;;;;;;;5.78;99.02;99432.97;4156274;28;20016;-70
2023/12/13 06:49:21;;;;;;;;;;;;;;;5.80;98.79;99431.94;4156795;28;20012;-70
2023/12/13 06:51:23;;;;;;;;;;;;;;;5.81;99.05;99438.97;4138570;28;20925;-70
2023/12/13 06:53:25;;;;;;;;;;;;;;;5.81;98.89;99437.13;4156409;28;19925;-71
2023/12/13 06:55:27;;;;;;;;;;;;;;;5.83;99.01;99436.94;4154579;28;20395;-70
2023/12/13 06:57:29;;;;;;;;;;;;;;;5.84;98.79;99433.25;4156860;28;20028;-70
2023/12/13 06:59:31;;;;;;;;;;;;;;;5.86;99.02;99434.75;4155136;28;20369;-71
2023/12/13 07:01:34;;;;;;;;;;;;;;;5.89;98.92;99438.91;4156631;28;20028;-70
2023/12/13 07:03:36;;;;;;;;;;;;;;;5.87;98.85;99428.38;4138272;28;20017;-71
2023/12/13 07:05:37;;;;;;;;;;;;;;;5.87;98.90;99425.69;4156413;28;20012;-71
2023/12/13 07:07:39;;;;;;;;;;;;;;;5.88;98.88;99422.00;4155016;28;20017;-69
2023/12/13 07:09:41;;;;;;;;;;;;;;;5.88;99.15;99426.56;4154740;28;20051;-70
2023/12/13 07:11:43;;;;;;;;;;;;;;;5.89;99.19;99417.47;4154523;28;20012;-69
2023/12/13 07:13:46;;;;;;;;;;;;;;;5.90;99.38;99427.19;4154401;28;19925;-69
2023/12/13 07:15:49;;;;;;;;;;;;;;;5.90;99.04;99427.19;4154846;28;20032;-71
2023/12/13 07:17:53;;;;;;;;;;;;;;;5.92;99.10;99422.47;4154094;28;20392;-67
2023/12/13 07:19:55;;;;;;;;;;;;;;;5.91;99.26;99427.00;4155321;28;20028;-70
2023/12/13 07:21:57;;;;;;;;;;;;;;;5.91;99.27;99431.56;4137693;28;20097;-70
2023/12/13 07:24:00;;;;;;;;;;;;;;;5.91;99.59;99429.69;4156599;28;20092;-70
2023/12/13 07:26:02;;;;;;;;;;;;;;;5.91;99.63;99427.00;4153492;28;20482;-70
2023/12/13 07:28:04;;;;;;;;;;;;;;;5.92;99.36;99431.38;4153813;28;20010;-71
2023/12/13 07:30:07;;;;;;;;;;;;;;;5.91;99.74;99431.56;4154763;28;20366;-70
2023/12/13 07:32:10;;;;;;;;;;;;;;;5.92;99.40;99427.84;4136998;28;20017;-71
2023/12/13 07:34:15;;;;;;;;;;;;;;;5.93;99.31;99432.19;4153690;28;19975;-69
2023/12/13 07:36:18;;;;;;;;;;;;;;;5.91;99.28;99432.38;4149424;28;19929;-71
2023/12/13 07:38:20;;;;;;;;;;;;;;;5.94;99.66;99431.16;4134789;28;19930;-72
2023/12/13 07:40:22;;;;;;;;;;;;;;;5.94;99.65;99432.00;4154921;28;20016;-71
2023/12/13 07:42:27;;;;;;;;;;;;;;;5.95;99.53;99435.53;4138869;28;20024;-71
2023/12/13 07:44:31;;;;;;;;;;;;;;;5.97;99.62;99433.50;4155184;28;19929;-71
2023/12/13 07:46:34;;;;;;;;;;;;;;;6.00;99.41;99429.66;4154853;28;20028;-72
2023/12/13 07:48:37;;;;;;;;;;;;;;;6.00;99.10;99437.69;4155376;28;19941;-71
2023/12/13 07:50:42;;;;;;;;;;;;;;;6.01;99.00;99437.53;4154960;28;19969;-71
2023/12/13 07:52:45;;;;;;;;;;;;;;;6.02;98.92;99441.03;4139018;28;19937;-70
2023/12/13 07:54:49;;;;;;;;;;;;;;;6.01;99.24;99444.75;4137986;28;19929;-70
2023/12/13 07:56:53;;;;;;;;;;;;;;;6.03;98.89;99443.53;4154040;28;20024;-68
2023/12/13 07:58:55;;;;;;;;;;;;;;;6.05;98.82;99446.88;4155910;28;19975;-69
2023/12/13 08:00:57;;;;;;;;;;;;;;;6.08;98.65;99443.84;4163954;28;20032;-70
2023/12/13 08:02:59;;;;;;;;;;;;;;;6.07;98.57;99447.53;4153464;28;20016;-71
2023/12/13 08:05:01;;;;;;;;;;;;;;;6.07;98.69;99447.53;4151401;28;20032;-69
2023/12/13 08:07:05;;;;;;;;;;;;;;;6.08;98.64;99446.53;4155156;28;20032;-71
2023/12/13 08:09:09;;;;;;;;;;;;;;;6.07;98.78;99444.03;4155487;28;20013;-71
2023/12/13 08:11:11;;;;;;;;;;;;;;;6.07;98.43;99449.38;4155973;28;20063;-71
2023/12/13 08:13:13;;;;;;;;;;;;;;;6.07;98.50;99450.19;4153677;28;20024;-71
2023/12/13 08:15:15;;;;;;;;;;;;;;;6.07;98.42;99450.19;4156162;28;19933;-71
2023/12/13 08:17:20;;;;;;;;;;;;;;;6.06;98.48;99450.38;4156120;28;20012;-71
2023/12/13 08:19:23;;;;;;;;;;;;;;;6.06;98.53;99450.38;4155574;28;20023;-70
2023/12/13 08:21:25;;;;;;;;;;;;;;;6.09;98.49;99456.22;4156306;28;20016;-70
2023/12/13 08:23:29;;;;;;;;;;;;;;;6.08;98.85;99456.38;4156500;28;19948;-72
2023/12/13 08:25:31;;;;;;;;;;;;;;;6.07;98.56;99447.53;4154362;28;20462;-71
2023/12/13 08:27:33;;;;;;;;;;;;;;;6.08;98.92;99448.34;4156433;28;20023;-71
2023/12/13 08:29:35;;;;;;;;;;;;;;;6.09;98.70;99448.16;4154410;28;19972;-71
2023/12/13 08:31:37;;;;;;;;;;;;;;;6.09;99.04;99453.53;4155679;28;20019;-70
2023/12/13 08:33:41;;;;;;;;;;;;;;;6.09;99.02;99448.16;4155675;28;20024;-71
2023/12/13 08:35:43;;;;;;;;;;;;;;;6.09;98.78;99450.03;4154250;28;20407;-68
2023/12/13 08:37:44;;;;;;;;;;;;;;;6.09;98.87;99448.16;4137470;28;20008;-71
2023/12/13 08:39:48;;;;;;;;;;;;;;;6.10;98.70;99451.69;4137151;28;20016;-71
2023/12/13 08:41:49;;;;;;;;;;;;;;;6.08;98.95;99446.53;4154805;28;20023;-71
2023/12/13 08:43:51;;;;;;;;;;;;;;;6.08;99.26;99449.19;4156110;28;20025;-71
2023/12/13 08:45:53;;;;;;;;;;;;;;;6.08;98.96;99449.19;4155135;28;20012;-71
2023/12/13 08:47:56;;;;;;;;;;;;;;;6.10;99.05;99462.44;4154921;28;20387;-71
2023/12/13 08:49:57;;;;;;;;;;;;;;;6.10;99.29;99457.88;4155605;28;20463;-71
2023/12/13 08:51:59;;;;;;;;;;;;;;;6.10;98.99;99452.53;4155606;28;21319;-71
2023/12/13 08:54:01;;;;;;;;;;;;;;;6.11;99.24;99456.03;4155179;28;20008;-69
2023/12/13 08:56:05;;;;;;;;;;;;;;;6.11;99.09;99458.72;4138572;28;19961;-71
2023/12/13 08:58:07;;;;;;;;;;;;;;;6.12;98.91;99463.91;4153667;28;20028;-69
2023/12/13 09:00:09;;;;;;;;;;;;;;;6.11;99.32;99462.25;4143569;28;20033;-71
2023/12/13 09:02:11;;;;;;;;;;;;;;;6.13;99.06;99460.22;4153956;28;20008;-71
2023/12/13 09:04:14;;;;;;;;;;;;;;;6.14;99.20;99458.34;4138393;28;20032;-70
2023/12/13 09:06:16;;;;;;;;;;;;;;;6.16;99.20;99464.38;4156481;28;20020;-72
2023/12/13 09:08:18;;;;;;;;;;;;;;;6.17;99.03;99468.72;4136933;28;19976;-71
2023/12/13 09:10:20;;;;;;;;;;;;;;;6.17;99.28;99470.56;4155100;28;20020;-72
2023/12/13 09:12:23;;;;;;;;;;;;;;;6.17;98.99;99462.53;4137405;28;20370;-71
2023/12/13 09:14:25;;;;;;;;;;;;;;;6.18;99.19;99465.03;4154375;28;20028;-71
2023/12/13 09:16:27;;;;;;;;;;;;;;;6.18;98.78;99466.91;4154953;28;20275;-72
2023/12/13 09:18:29;;;;;;;;;;;;;;;6.19;98.97;99463.19;4151132;28;20011;-72
2023/12/13 09:20:31;;;;;;;;;;;;;;;6.19;98.95;99465.84;4154883;28;20016;-70
2023/12/13 09:22:34;;;;;;;;;;;;;;;6.19;98.55;99471.22;4154555;28;20043;-71
2023/12/13 09:24:37;;;;;;;;;;;;;;;6.20;98.68;99467.53;4151658;28;20482;-71
2023/12/13 09:26:38;;;;;;;;;;;;;;;6.20;98.46;99468.38;4154232;28;20492;-70
2023/12/13 09:28:41;;;;;;;;;;;;;;;6.20;98.75;99468.38;4154371;28;20035;-71
2023/12/13 09:30:43;;;;;;;;;;;;;;;6.21;98.70;99471.91;4152527;28;20044;-70
2023/12/13 09:32:45;;;;;;;;;;;;;;;6.21;98.84;99470.03;4153916;28;20455;-71
2023/12/13 09:34:47;;;;;;;;;;;;;;;6.21;98.56;99470.03;4154440;28;20420;-69
2023/12/13 09:36:49;;;;;;;;;;;;;;;6.22;98.94;99476.22;4122179;28;20033;-70
2023/12/13 09:38:51;;;;;;;;;;;;;;;6.23;98.51;99473.38;4154352;28;20024;-72
2023/12/13 09:40:53;;;;;;;;;;;;;;;6.25;98.63;99475.88;4155488;28;20020;-71
2023/12/13 09:42:56;;;;;;;;;;;;;;;6.25;98.78;99475.88;4154756;28;20637;-71
2023/12/13 09:45:00;;;;;;;;;;;;;;;6.25;98.53;99471.34;4153229;28;19936;-72
2023/12/13 09:47:03;;;;;;;;;;;;;;;6.25;98.93;99470.50;4154565;28;19975;-71
2023/12/13 09:49:06;;;;;;;;;;;;;;;6.26;98.55;99464.13;4154477;28;19972;-70
2023/12/13 09:51:09;;;;;;;;;;;;;;;6.26;98.56;99464.97;4158243;28;20090;-70
2023/12/13 09:53:11;;;;;;;;;;;;;;;6.26;98.66;99467.66;4158019;28;20015;-71
2023/12/13 09:55:15;;;;;;;;;;;;;;;6.28;98.83;99472.81;4159005;28;20019;-72
2023/12/13 09:57:17;;;;;;;;;;;;;;;6.28;98.55;99472.81;4157938;28;20467;-71
2023/12/13 09:59:18;;;;;;;;;;;;;;;6.27;98.65;99473.81;4158187;28;20027;-72
2023/12/13 10:01:21;;;;;;;;;;;;;;;6.29;98.51;99478.00;4157310;28;19940;-72
2023/12/13 10:03:22;;;;;;;;;;;;;;;6.28;98.64;99462.91;4157102;28;20020;-71
2023/12/13 10:05:24;;;;;;;;;;;;;;;6.28;98.48;99472.81;4156966;28;20028;-71
2023/12/13 10:07:28;;;;;;;;;;;;;;;6.28;98.70;99468.28;4156801;28;20023;-69
2023/12/13 10:09:31;;;;;;;;;;;;;;;6.30;98.66;99462.75;4157980;28;20004;-71
2023/12/13 10:11:32;;;;;;;;;;;;;;;6.32;98.43;99468.78;4158352;28;20032;-70
2023/12/13 10:13:34;;;;;;;;;;;;;;;6.31;98.41;99461.75;4156658;28;20486;-71
2023/12/13 10:15:36;;;;;;;;;;;;;;;6.30;98.76;99468.09;4157445;28;20020;-71
2023/12/13 10:17:40;;;;;;;;;;;;;;;6.31;98.64;99461.75;4157389;28;20430;-71
2023/12/13 10:19:43;;;;;;;;;;;;;;;6.33;98.61;99459.69;4156208;28;19960;-70
2023/12/13 10:21:47;;;;;;;;;;;;;;;6.31;98.64;99457.19;4157978;28;20019;-71
2023/12/13 10:23:48;;;;;;;;;;;;;;;6.33;98.65;99457.03;4157074;28;20019;-71
2023/12/13 10:25:50;;;;;;;;;;;;;;;6.34;98.37;99452.50;4156019;28;20024;-71
2023/12/13 10:27:52;;;;;;;;;;;;;;;6.34;98.50;99456.00;4151583;28;20347;-70
2023/12/13 10:29:54;;;;;;;;;;;;;;;6.34;98.64;99460.56;4156475;28;19967;-71
2023/12/13 10:31:57;;;;;;;;;;;;;;;6.34;98.34;99455.19;4157413;28;20015;-71
2023/12/13 10:34:01;;;;;;;;;;;;;;;6.33;98.79;99457.03;4139136;28;19929;-71
2023/12/13 10:36:04;;;;;;;;;;;;;;;6.35;98.38;99462.19;4155517;28;19925;-71
2023/12/13 10:38:06;;;;;;;;;;;;;;;6.35;98.54;99454.16;4139425;28;20300;-71
2023/12/13 10:40:09;;;;;;;;;;;;;;;6.36;98.61;99451.28;4157576;28;20020;-70
2023/12/13 10:42:11;;;;;;;;;;;;;;;6.37;98.33;99454.84;4157352;28;20017;-69
2023/12/13 10:44:15;;;;;;;;;;;;;;;6.38;98.60;99456.47;4157807;28;20048;-71
2023/12/13 10:46:17;;;;;;;;;;;;;;;6.37;98.62;99452.16;4158044;28;20016;-70